createdAt,value
2023-04-14T00:02:25.192Z,5.90
2023-04-14T00:04:53.956Z,5.80
2023-04-14T00:07:21.741Z,5.80
2023-04-14T00:09:49.160Z,5.50
2023-04-14T00:12:16.633Z,5.50
2023-04-14T00:14:43.879Z,5.60
2023-04-14T00:17:11.910Z,5.70
2023-04-14T00:19:39.325Z,5.90
2023-04-14T00:22:06.509Z,5.70
2023-04-14T00:24:33.581Z,5.60
2023-04-14T00:27:01.551Z,5.70
2023-04-14T00:29:28.880Z,5.70
2023-04-14T00:31:56.473Z,5.80
2023-04-14T00:34:23.907Z,5.90
2023-04-14T00:36:51.271Z,6.00
2023-04-14T00:39:18.441Z,6.00
2023-04-14T00:41:45.742Z,6.00
2023-04-14T00:44:13.178Z,5.90
2023-04-14T00:46:44.147Z,5.80
2023-04-14T00:49:11.779Z,5.90
2023-04-14T00:51:39.182Z,5.80
2023-04-14T00:54:07.513Z,5.50
2023-04-14T00:56:34.642Z,5.70
2023-04-14T00:59:02.384Z,5.80
2023-04-14T01:01:30.075Z,5.80
2023-04-14T01:03:58.785Z,5.60
2023-04-14T01:06:27.511Z,5.70
2023-04-14T01:08:55.283Z,5.80
2023-04-14T01:11:31.280Z,5.70
2023-04-14T01:14:15.400Z,5.60
2023-04-14T01:16:42.740Z,5.50
2023-04-14T01:19:32.339Z,5.40
2023-04-14T01:22:11.309Z,5.40
2023-04-14T01:25:00.317Z,5.30
2023-04-14T01:27:43.044Z,5.30
2023-04-14T01:30:31.752Z,5.30
2023-04-14T01:33:00.389Z,5.10
2023-04-14T01:35:37.182Z,5.10
2023-04-14T01:38:13.516Z,5.20
2023-04-14T01:40:41.496Z,5.10
2023-04-14T01:43:12.059Z,5.20
2023-04-14T01:45:42.505Z,4.90
2023-04-14T01:48:10.419Z,5.00
2023-04-14T01:50:37.950Z,4.90
2023-04-14T01:53:07.003Z,5.10
2023-04-14T01:55:34.782Z,5.00
2023-04-14T01:58:01.977Z,5.10
2023-04-14T02:00:29.430Z,5.30
2023-04-14T02:02:56.879Z,5.30
2023-04-14T02:05:24.389Z,5.30
2023-04-14T02:07:51.870Z,5.20
2023-04-14T02:10:20.980Z,5.10
2023-04-14T02:12:48.791Z,5.20
2023-04-14T02:15:17.572Z,5.10
2023-04-14T02:17:45.972Z,5.20
2023-04-14T02:20:14.222Z,5.00
2023-04-14T02:22:41.748Z,5.00
2023-04-14T02:25:09.773Z,4.90
2023-04-14T02:27:57.257Z,5.00
2023-04-14T02:30:36.148Z,4.80
2023-04-14T02:33:12.635Z,4.70
2023-04-14T02:36:17.189Z,4.50
2023-04-14T02:38:53.576Z,4.70
2023-04-14T02:41:25.617Z,4.70
2023-04-14T02:44:11.353Z,4.80
2023-04-14T02:46:44.033Z,4.80
2023-04-14T02:49:12.926Z,4.80
2023-04-14T02:51:40.518Z,4.80
2023-04-14T02:54:07.941Z,4.90
2023-04-14T02:56:35.340Z,4.90
2023-04-14T02:59:03.102Z,4.70
2023-04-14T03:01:30.512Z,4.80
2023-04-14T03:03:58.221Z,4.70
2023-04-14T03:06:26.778Z,4.90
2023-04-14T03:08:55.025Z,5.00
2023-04-14T03:11:22.947Z,4.90
2023-04-14T03:13:53.365Z,4.80
2023-04-14T03:16:23.687Z,4.60
2023-04-14T03:18:50.791Z,4.60
2023-04-14T03:21:19.326Z,4.50
2023-04-14T03:23:46.720Z,4.50
2023-04-14T03:26:14.345Z,4.40
2023-04-14T03:28:43.096Z,4.30
2023-04-14T03:31:10.725Z,4.20
2023-04-14T03:33:39.286Z,4.20
2023-04-14T03:36:07.724Z,4.30
2023-04-14T03:38:34.862Z,4.20
2023-04-14T03:41:05.776Z,4.20
2023-04-14T03:43:34.054Z,4.30
2023-04-14T03:46:02.880Z,4.30
2023-04-14T03:48:31.025Z,4.20
2023-04-14T03:50:58.664Z,4.20
2023-04-14T03:53:26.218Z,4.30
2023-04-14T03:55:54.190Z,4.30
2023-04-14T03:58:21.821Z,4.20
2023-04-14T04:00:49.239Z,4.10
2023-04-14T04:03:20.115Z,4.10
2023-04-14T04:05:47.640Z,4.20
2023-04-14T04:08:15.033Z,4.20
2023-04-14T04:10:42.955Z,4.30
2023-04-14T04:13:13.680Z,4.20
2023-04-14T04:15:41.214Z,4.30
2023-04-14T04:18:08.682Z,4.30
2023-04-14T04:20:38.639Z,4.20
2023-04-14T04:23:07.917Z,4.30
2023-04-14T04:25:36.649Z,4.40
2023-04-14T04:28:03.971Z,4.40
2023-04-14T04:30:32.885Z,4.30
2023-04-14T04:33:06.502Z,4.20
2023-04-14T04:35:35.360Z,4.30
2023-04-14T04:38:02.728Z,4.40
2023-04-14T04:40:36.262Z,4.50
2023-04-14T04:43:03.607Z,4.40
2023-04-14T04:45:59.198Z,4.50
2023-04-14T04:48:26.626Z,4.50
2023-04-14T04:50:53.934Z,4.50
2023-04-14T04:53:21.533Z,4.50
2023-04-14T04:55:49.028Z,4.50
2023-04-14T04:58:16.392Z,4.60
2023-04-14T05:00:43.844Z,4.60
2023-04-14T05:03:13.002Z,4.50
2023-04-14T05:05:40.525Z,4.60
2023-04-14T05:08:08.754Z,4.50
2023-04-14T05:10:39.025Z,4.60
2023-04-14T05:13:06.232Z,4.60
2023-04-14T05:15:33.552Z,4.70
2023-04-14T05:18:01.912Z,4.60
2023-04-14T05:20:29.465Z,4.60
2023-04-14T05:22:56.730Z,4.70
2023-04-14T05:25:23.929Z,4.70
2023-04-14T05:27:51.482Z,4.80
2023-04-14T05:30:18.690Z,4.60
2023-04-14T05:32:46.018Z,4.70
2023-04-14T05:35:13.401Z,4.70
2023-04-14T05:37:40.708Z,4.60
2023-04-14T05:40:08.750Z,4.70
2023-04-14T05:42:36.065Z,4.70
2023-04-14T05:45:04.335Z,4.70
2023-04-14T05:47:31.636Z,4.60
2023-04-14T05:49:59.463Z,4.60
2023-04-14T05:52:27.006Z,4.70
2023-04-14T05:54:54.415Z,4.70
2023-04-14T05:57:21.880Z,4.70
2023-04-14T05:59:49.237Z,4.50
2023-04-14T06:02:16.667Z,4.60
2023-04-14T06:04:44.335Z,4.70
2023-04-14T06:07:12.090Z,4.70
2023-04-14T06:09:39.345Z,4.60
2023-04-14T06:12:06.717Z,4.70
2023-04-14T06:14:34.236Z,4.60
2023-04-14T06:17:01.672Z,4.70
2023-04-14T06:19:28.824Z,4.60
2023-04-14T06:25:44.790Z,4.50
2023-04-14T06:28:12.150Z,4.60
2023-04-14T06:30:39.335Z,4.60
2023-04-14T06:33:07.580Z,4.60
2023-04-14T06:35:35.881Z,4.40
2023-04-14T06:38:03.169Z,4.40
2023-04-14T06:40:31.000Z,4.50
2023-04-14T06:42:58.179Z,4.20
2023-04-14T06:45:25.678Z,4.30
2023-04-14T06:47:53.229Z,4.40
2023-04-14T06:50:20.672Z,4.40
2023-04-14T06:52:48.007Z,4.40
2023-04-14T06:55:16.041Z,4.30
2023-04-14T06:57:43.270Z,4.30
2023-04-14T07:00:11.431Z,4.50
2023-04-14T07:02:38.841Z,4.30
2023-04-14T07:05:07.665Z,4.40
2023-04-14T07:07:36.482Z,4.40
2023-04-14T07:10:03.768Z,4.30
2023-04-14T07:12:31.400Z,4.50
2023-04-14T07:14:58.734Z,4.50
2023-04-14T07:17:26.209Z,4.40
2023-04-14T07:19:53.549Z,4.30
2023-04-14T07:22:21.165Z,4.30
2023-04-14T07:24:48.434Z,4.40
2023-04-14T07:27:16.019Z,4.40
2023-04-14T07:29:43.358Z,4.40
2023-04-14T07:32:12.377Z,4.20
2023-04-14T07:34:44.128Z,4.30
2023-04-14T07:37:11.680Z,4.20
2023-04-14T07:39:39.155Z,4.30
2023-04-14T07:42:07.346Z,4.40
2023-04-14T07:44:34.815Z,4.40
2023-04-14T07:47:02.165Z,4.10
2023-04-14T07:49:29.453Z,4.10
2023-04-14T07:51:57.325Z,4.30
2023-04-14T07:54:24.683Z,4.20
2023-04-14T07:56:52.597Z,4.30
2023-04-14T07:59:19.916Z,4.30
2023-04-14T08:01:48.613Z,4.30
2023-04-14T08:04:16.139Z,4.30
2023-04-14T08:06:43.626Z,4.20
2023-04-14T08:09:12.735Z,4.20
2023-04-14T08:11:40.341Z,4.20
2023-04-14T08:14:07.725Z,4.30
2023-04-14T08:16:37.038Z,4.30
2023-04-14T08:19:05.448Z,4.20
2023-04-14T08:21:33.416Z,4.30
2023-04-14T08:24:00.678Z,4.30
2023-04-14T08:26:28.002Z,4.30
2023-04-14T08:28:56.068Z,4.30
2023-04-14T08:31:24.634Z,4.40
2023-04-14T08:33:53.461Z,4.40
2023-04-14T08:36:21.172Z,4.70
2023-04-14T08:38:48.686Z,4.60
2023-04-14T08:41:16.472Z,4.70
2023-04-14T08:43:43.741Z,4.70
2023-04-14T08:46:11.993Z,4.80
2023-04-14T08:48:39.928Z,4.70
2023-04-14T08:51:19.339Z,4.60
2023-04-14T08:53:46.944Z,4.70
2023-04-14T08:56:17.544Z,4.50
2023-04-14T08:58:45.564Z,4.30
2023-04-14T09:01:13.374Z,4.40
2023-04-14T09:03:41.218Z,4.40
2023-04-14T09:06:08.949Z,4.50
2023-04-14T09:08:36.319Z,4.50
2023-04-14T09:11:04.352Z,4.60
2023-04-14T09:13:32.114Z,4.60
2023-04-14T09:16:00.443Z,4.70
2023-04-14T09:18:28.880Z,4.80
2023-04-14T09:21:29.357Z,5.10
2023-04-14T09:23:47.078Z,5.20
2023-04-14T09:26:14.310Z,5.50
2023-04-14T09:28:42.363Z,5.40
2023-04-14T09:31:11.262Z,5.20
2023-04-14T09:33:44.852Z,5.20
2023-04-14T09:36:20.004Z,5.20
2023-04-14T09:38:48.977Z,5.10
2023-04-14T09:41:21.950Z,5.20
2023-04-14T09:43:50.038Z,5.40
2023-04-14T09:46:17.600Z,5.50
2023-04-14T09:48:52.764Z,5.40
2023-04-14T09:51:38.473Z,5.30
2023-04-14T09:54:06.551Z,5.40
2023-04-14T09:56:34.360Z,5.20
2023-04-14T09:59:03.119Z,5.20
2023-04-14T10:01:32.413Z,5.10
2023-04-14T10:04:01.691Z,5.30
2023-04-14T10:06:31.544Z,5.30
2023-04-14T10:09:00.260Z,5.50
2023-04-14T10:11:31.076Z,5.60
2023-04-14T10:14:00.372Z,5.60
2023-04-14T10:16:27.915Z,5.70
2023-04-14T10:18:55.622Z,5.60
2023-04-14T10:21:23.382Z,5.70
2023-04-14T10:23:51.107Z,5.70
2023-04-14T10:26:19.547Z,5.70
2023-04-14T10:28:48.448Z,5.80
2023-04-14T10:31:26.750Z,5.80
2023-04-14T10:33:54.554Z,5.70
2023-04-14T10:36:25.990Z,5.80
2023-04-14T10:39:00.211Z,5.90
2023-04-14T10:41:27.726Z,6.00
2023-04-14T10:43:55.131Z,5.90
2023-04-14T10:46:23.479Z,6.00
2023-04-14T10:48:50.962Z,6.00
2023-04-14T10:51:18.788Z,6.10
2023-04-14T10:53:47.910Z,6.10
2023-04-14T10:56:15.264Z,6.00
2023-04-14T10:58:45.945Z,6.10
2023-04-14T11:01:24.648Z,6.10
2023-04-14T11:03:53.808Z,6.00
2023-04-14T11:06:50.188Z,6.10
2023-04-14T11:09:33.110Z,6.00
2023-04-14T11:12:05.717Z,6.10
2023-04-14T11:14:34.173Z,6.30
2023-04-14T11:17:04.373Z,6.40
2023-04-14T11:19:32.812Z,6.30
2023-04-14T11:22:00.180Z,6.40
2023-04-14T11:24:27.841Z,6.60
2023-04-14T11:26:55.709Z,6.70
2023-04-14T11:29:23.026Z,6.70
2023-04-14T11:32:08.468Z,6.60
2023-04-14T11:34:36.159Z,6.30
2023-04-14T11:37:04.169Z,6.40
2023-04-14T11:39:31.763Z,6.60
2023-04-14T11:42:00.913Z,6.70
2023-04-14T11:44:28.432Z,6.60
2023-04-14T11:46:55.993Z,6.70
2023-04-14T11:49:36.185Z,6.70
2023-04-14T11:52:10.044Z,6.70
2023-04-14T11:54:38.291Z,6.70
2023-04-14T11:57:15.256Z,6.80
2023-04-14T11:59:46.633Z,6.90
2023-04-14T12:02:18.820Z,6.80
2023-04-14T12:04:47.232Z,6.90
2023-04-14T12:07:17.297Z,6.90
2023-04-14T12:09:49.238Z,7.00
2023-04-14T12:12:17.882Z,7.00
2023-04-14T12:14:46.751Z,7.00
2023-04-14T12:17:15.703Z,7.00
2023-04-14T12:19:43.669Z,7.00
2023-04-14T12:22:11.288Z,6.90
2023-04-14T12:24:45.354Z,6.90
2023-04-14T12:27:12.751Z,6.90
2023-04-14T12:29:40.384Z,7.00
2023-04-14T12:32:12.020Z,7.10
2023-04-14T12:34:39.681Z,6.90
2023-04-14T12:37:10.831Z,7.00
2023-04-14T12:40:00.956Z,7.00
2023-04-14T12:42:29.362Z,6.90
2023-04-14T12:45:01.326Z,6.50
2023-04-14T12:47:35.579Z,6.80
2023-04-14T12:50:22.424Z,6.90
2023-04-14T12:52:50.125Z,7.00
2023-04-14T12:55:28.846Z,6.90
2023-04-14T12:57:56.920Z,6.70
2023-04-14T13:00:28.159Z,7.00
2023-04-14T13:02:56.260Z,7.10
2023-04-14T13:05:24.862Z,7.30
2023-04-14T13:07:52.247Z,7.40
2023-04-14T13:10:19.694Z,7.50
2023-04-14T13:12:46.931Z,7.10
2023-04-14T13:16:10.448Z,7.30
2023-04-14T13:18:01.639Z,7.60
2023-04-14T13:20:30.967Z,7.90
2023-04-14T13:22:58.494Z,8.00
2023-04-14T13:25:26.014Z,7.80
2023-04-14T13:27:53.235Z,7.50
2023-04-14T13:30:21.072Z,7.40
2023-04-14T13:32:48.613Z,7.60
2023-04-14T13:35:16.038Z,7.80
2023-04-14T13:37:43.402Z,7.70
2023-04-14T13:40:11.264Z,7.80
2023-04-14T13:42:38.635Z,8.00
2023-04-14T13:45:06.645Z,8.10
2023-04-14T13:47:34.067Z,8.00
2023-04-14T13:50:01.821Z,7.80
2023-04-14T13:52:29.511Z,7.90
2023-04-14T13:54:56.866Z,8.00
2023-04-14T13:57:24.697Z,8.10
2023-04-14T13:59:51.936Z,8.10
2023-04-14T14:02:19.443Z,7.80
2023-04-14T14:04:46.753Z,8.00
2023-04-14T14:07:13.923Z,8.10
2023-04-14T14:09:41.351Z,8.10
2023-04-14T14:12:11.802Z,8.00
2023-04-14T14:14:39.197Z,7.80
2023-04-14T14:17:06.490Z,7.70
2023-04-14T14:19:34.480Z,7.80
2023-04-14T14:22:01.802Z,7.60
2023-04-14T14:24:30.230Z,7.80
2023-04-14T14:26:58.403Z,7.80
2023-04-14T14:29:25.798Z,7.90
2023-04-14T14:31:53.226Z,7.90
2023-04-14T14:34:21.110Z,8.10
2023-04-14T14:36:48.489Z,8.00
2023-04-14T14:39:16.349Z,8.10
2023-04-14T14:41:43.825Z,8.10
2023-04-14T14:44:11.320Z,8.10
2023-04-14T14:46:38.761Z,8.10
2023-04-14T14:49:06.354Z,8.20
2023-04-14T14:51:33.774Z,8.20
2023-04-14T14:54:09.266Z,8.20
2023-04-14T14:56:37.666Z,8.10
2023-04-14T14:59:05.046Z,7.60
2023-04-14T15:01:33.405Z,7.50
2023-04-14T15:04:01.132Z,7.50
2023-04-14T15:06:29.145Z,7.70
2023-04-14T15:08:56.649Z,7.60
2023-04-14T15:11:24.597Z,7.90
2023-04-14T15:13:52.120Z,7.80
2023-04-14T15:16:19.872Z,7.90
2023-04-14T15:18:47.284Z,7.80
2023-04-14T15:21:14.711Z,7.90
2023-04-14T15:23:44.026Z,7.80
2023-04-14T15:26:12.814Z,7.80
2023-04-14T15:28:41.322Z,7.70
2023-04-14T15:31:09.386Z,7.80
2023-04-14T15:33:36.891Z,7.60
2023-04-14T15:36:04.295Z,7.60
2023-04-14T15:38:31.817Z,7.70
2023-04-14T15:41:00.227Z,7.60
2023-04-14T15:43:28.131Z,7.60
2023-04-14T15:45:55.865Z,7.60
2023-04-14T15:48:23.455Z,7.40
2023-04-14T15:50:51.014Z,7.40
2023-04-14T15:53:18.342Z,7.70
2023-04-14T15:55:45.652Z,7.70
2023-04-14T15:58:12.951Z,7.30
2023-04-14T16:00:40.413Z,7.40
2023-04-14T16:03:07.876Z,7.40
2023-04-14T16:05:35.107Z,7.50
2023-04-14T16:08:02.508Z,7.50
2023-04-14T16:10:29.900Z,7.80
2023-04-14T16:12:57.373Z,7.70
2023-04-14T16:15:25.410Z,7.70
2023-04-14T16:17:53.339Z,7.60
2023-04-14T16:20:20.938Z,7.70
2023-04-14T16:22:49.744Z,7.50
2023-04-14T16:25:17.638Z,7.50
2023-04-14T16:27:45.109Z,7.30
2023-04-14T16:30:12.672Z,7.30
2023-04-14T16:32:40.155Z,7.40
2023-04-14T16:35:08.416Z,7.50
2023-04-14T16:37:35.752Z,7.50
2023-04-14T16:40:03.420Z,7.40
2023-04-14T16:42:30.836Z,7.30
2023-04-14T16:44:58.411Z,7.40
2023-04-14T16:47:25.916Z,7.30
2023-04-14T16:49:53.093Z,7.40
2023-04-14T16:52:20.347Z,7.50
2023-04-14T16:54:47.868Z,7.50
2023-04-14T16:57:15.791Z,7.30
2023-04-14T16:59:43.430Z,7.30
2023-04-14T17:02:11.573Z,7.40
2023-04-14T17:04:39.679Z,7.30
2023-04-14T17:07:07.248Z,7.20
2023-04-14T17:09:34.371Z,7.20
2023-04-14T17:12:01.844Z,7.20
2023-04-14T17:14:29.438Z,7.30
2023-04-14T17:16:57.129Z,7.30
2023-04-14T17:19:25.220Z,7.20
2023-04-14T17:21:52.868Z,7.20
2023-04-14T17:24:20.943Z,7.10
2023-04-14T17:26:48.307Z,7.10
2023-04-14T17:29:16.491Z,7.00
2023-04-14T17:31:44.949Z,7.00
2023-04-14T17:34:12.660Z,7.00
2023-04-14T17:36:40.216Z,7.10
2023-04-14T17:39:08.492Z,7.00
2023-04-14T17:41:36.275Z,6.90
2023-04-14T17:44:03.975Z,6.90
2023-04-14T17:46:34.832Z,7.00
2023-04-14T17:49:02.383Z,7.20
2023-04-14T17:51:30.524Z,7.10
2023-04-14T17:53:58.331Z,7.10
2023-04-14T17:56:25.980Z,7.20
2023-04-14T17:58:53.277Z,7.00
2023-04-14T18:01:22.297Z,7.00
2023-04-14T18:03:50.312Z,6.80
2023-04-14T18:06:17.753Z,6.80
2023-04-14T18:08:45.026Z,6.70
2023-04-14T18:11:12.844Z,6.70
2023-04-14T18:13:40.206Z,6.60
2023-04-14T18:16:08.996Z,6.80
2023-04-14T18:18:37.765Z,6.80
2023-04-14T18:21:05.380Z,6.80
2023-04-14T18:23:32.916Z,6.70
2023-04-14T18:28:33.803Z,6.90
2023-04-14T18:31:01.441Z,6.90
2023-04-14T18:33:29.518Z,7.00
2023-04-14T18:35:58.236Z,7.00
2023-04-14T18:38:26.295Z,6.90
2023-04-14T18:40:55.319Z,6.70
2023-04-14T18:43:22.997Z,6.70
2023-04-14T18:45:50.470Z,6.80
2023-04-14T18:48:17.795Z,6.80
2023-04-14T18:50:45.610Z,6.80
2023-04-14T18:53:13.597Z,6.80
2023-04-14T18:55:45.312Z,6.70
2023-04-14T18:58:13.788Z,6.70
2023-04-14T19:00:41.813Z,6.40
2023-04-14T19:03:09.280Z,6.40
2023-04-14T19:05:37.566Z,6.60
2023-04-14T19:08:05.224Z,6.60
2023-04-14T19:10:32.725Z,6.70
2023-04-14T19:13:00.400Z,6.50
2023-04-14T19:15:28.083Z,6.50
2023-04-14T19:17:55.930Z,6.60
2023-04-14T19:20:24.417Z,6.70
2023-04-14T19:22:51.873Z,6.50
2023-04-14T19:25:19.758Z,6.40
2023-04-14T19:27:47.113Z,6.20
2023-04-14T19:30:14.609Z,6.40
2023-04-14T19:32:42.207Z,6.50
2023-04-14T19:35:10.332Z,6.70
2023-04-14T19:37:38.749Z,6.70
2023-04-14T19:40:07.172Z,6.70
2023-04-14T19:42:34.753Z,6.70
2023-04-14T19:45:02.386Z,6.70
2023-04-14T19:47:29.726Z,6.60
2023-04-14T19:49:59.917Z,6.60
2023-04-14T19:52:27.801Z,6.80
2023-04-14T19:54:55.411Z,6.50
2023-04-14T19:57:24.149Z,6.50
2023-04-14T19:59:51.702Z,6.50
2023-04-14T20:02:19.354Z,6.40
2023-04-14T20:04:47.424Z,6.60
2023-04-14T20:07:14.943Z,6.60
2023-04-14T20:09:46.780Z,6.60
2023-04-14T20:12:14.336Z,6.50
2023-04-14T20:14:41.842Z,6.50
2023-04-14T20:17:09.330Z,6.50
2023-04-14T20:19:37.169Z,6.60
2023-04-14T20:22:04.848Z,6.70
2023-04-14T20:24:32.127Z,6.70
2023-04-14T20:26:59.549Z,6.80
2023-04-14T20:29:27.074Z,6.50
2023-04-14T20:31:54.722Z,6.60
2023-04-14T20:34:22.066Z,6.60
2023-04-14T20:36:50.709Z,6.70
2023-04-14T20:39:18.450Z,6.50
2023-04-14T20:41:46.651Z,6.60
2023-04-14T20:44:14.069Z,6.60
2023-04-14T20:46:41.868Z,6.70
2023-04-14T20:49:09.912Z,6.60
2023-04-14T20:51:39.719Z,6.70
2023-04-14T20:54:07.588Z,6.70
2023-04-14T20:56:35.509Z,6.70
2023-04-14T20:59:02.992Z,6.70
2023-04-14T21:01:30.818Z,6.80
2023-04-14T21:03:59.016Z,6.80
2023-04-14T21:06:26.492Z,6.80
2023-04-14T21:08:53.964Z,6.80
2023-04-14T21:11:21.327Z,6.70
2023-04-14T21:15:27.010Z,6.70
2023-04-14T21:16:36.630Z,6.70
2023-04-14T21:19:05.990Z,6.50
2023-04-14T21:21:33.785Z,6.30
2023-04-14T21:24:02.353Z,6.40
2023-04-14T21:26:29.762Z,6.30
2023-04-14T21:28:57.188Z,6.40
2023-04-14T21:31:24.650Z,6.40
2023-04-14T21:33:52.108Z,6.30
2023-04-14T21:36:20.036Z,6.50
2023-04-14T21:38:47.644Z,6.40
2023-04-14T21:41:14.853Z,6.40
2023-04-14T21:43:42.428Z,6.10
2023-04-14T21:46:10.293Z,6.10
2023-04-14T21:48:37.841Z,6.10
2023-04-14T21:51:05.332Z,6.20
2023-04-14T21:53:33.088Z,6.40
2023-04-14T21:56:10.240Z,6.40
2023-04-14T21:58:39.872Z,6.60
2023-04-14T22:01:10.547Z,6.70
2023-04-14T22:03:40.995Z,6.40
2023-04-14T22:06:10.241Z,6.50
2023-04-14T22:08:38.988Z,6.50
2023-04-14T22:11:07.433Z,6.30
2023-04-14T22:13:35.002Z,6.30
2023-04-14T22:16:02.838Z,6.40
2023-04-14T22:18:31.235Z,6.10
2023-04-14T22:20:59.069Z,6.20
2023-04-14T22:23:26.679Z,6.40
2023-04-14T22:25:54.063Z,6.40
2023-04-14T22:28:21.769Z,6.40
2023-04-14T22:30:49.428Z,6.20
2023-04-14T22:33:16.745Z,6.20
2023-04-14T22:35:43.997Z,6.30
2023-04-14T22:38:12.239Z,6.30
2023-04-14T22:40:39.503Z,6.30
2023-04-14T22:43:08.895Z,6.40
2023-04-14T22:45:37.662Z,6.30
2023-04-14T22:48:05.642Z,6.30
2023-04-14T22:50:34.183Z,6.30
2023-04-14T22:53:02.338Z,6.20
2023-04-14T22:55:30.362Z,6.20
2023-04-14T22:57:58.377Z,6.30
2023-04-14T23:00:26.391Z,6.10
2023-04-14T23:02:55.962Z,6.20
2023-04-14T23:05:23.512Z,6.30
2023-04-14T23:07:51.472Z,6.20
2023-04-14T23:10:19.426Z,6.20
2023-04-14T23:12:47.160Z,6.10
2023-04-14T23:15:14.666Z,5.80
2023-04-14T23:17:42.061Z,5.90
2023-04-14T23:20:09.796Z,6.00
2023-04-14T23:22:37.144Z,6.00
2023-04-14T23:25:05.325Z,6.00
2023-04-14T23:27:32.478Z,6.10
2023-04-14T23:29:59.792Z,6.10
2023-04-14T23:32:27.131Z,6.10
2023-04-14T23:34:54.543Z,6.10
2023-04-14T23:37:21.940Z,6.10
2023-04-14T23:39:49.378Z,6.10
2023-04-14T23:42:16.872Z,5.90
2023-04-14T23:44:44.227Z,5.70
2023-04-14T23:47:11.520Z,5.80
2023-04-14T23:49:39.039Z,5.80
2023-04-14T23:52:07.352Z,5.70
2023-04-14T23:54:34.664Z,5.70
2023-04-14T23:57:02.008Z,5.80
2023-04-14T23:59:30.032Z,6.00
